createdAt,value
2022-11-03T00:01:38.294Z,1.93
2022-11-03T00:04:07.443Z,2.40
2022-11-03T00:06:35.920Z,1.60
2022-11-03T00:09:06.470Z,1.80
2022-11-03T00:11:35.038Z,1.60
2022-11-03T00:14:03.305Z,1.70
2022-11-03T00:16:31.771Z,1.87
2022-11-03T00:19:01.121Z,1.20
2022-11-03T00:21:29.327Z,2.37
2022-11-03T00:23:57.613Z,1.80
2022-11-03T00:26:27.131Z,1.73
2022-11-03T00:28:56.668Z,1.43
2022-11-03T00:31:26.087Z,1.83
2022-11-03T00:33:55.228Z,1.30
2022-11-03T00:36:26.417Z,1.40
2022-11-03T00:38:54.497Z,2.00
2022-11-03T00:41:23.333Z,1.93
2022-11-03T00:43:52.573Z,2.13
2022-11-03T00:46:22.464Z,1.43
2022-11-03T00:48:51.336Z,1.87
2022-11-03T00:51:21.158Z,1.50
2022-11-03T00:53:53.233Z,1.80
2022-11-03T00:56:23.309Z,2.23
2022-11-03T00:58:52.310Z,1.70
2022-11-03T01:01:22.929Z,1.40
2022-11-03T01:04:15.914Z,1.77
2022-11-03T01:06:52.333Z,1.77
2022-11-03T01:09:24.049Z,2.20
2022-11-03T01:11:57.919Z,2.00
2022-11-03T01:14:27.793Z,1.67
2022-11-03T01:16:55.871Z,1.80
2022-11-03T01:19:25.282Z,1.77
2022-11-03T01:21:53.943Z,2.17
2022-11-03T01:24:23.430Z,1.90
2022-11-03T01:26:51.699Z,1.27
2022-11-03T01:29:20.078Z,2.30
2022-11-03T01:31:48.959Z,1.73
2022-11-03T01:34:18.945Z,1.90
2022-11-03T01:36:47.710Z,2.23
2022-11-03T01:39:17.328Z,1.80
2022-11-03T01:41:48.508Z,1.97
2022-11-03T01:44:28.890Z,1.93
2022-11-03T01:47:05.762Z,2.10
2022-11-03T01:49:39.676Z,2.33
2022-11-03T01:52:12.280Z,2.07
2022-11-03T01:54:42.485Z,2.73
2022-11-03T01:57:15.124Z,2.43
2022-11-03T01:59:44.898Z,2.63
2022-11-03T02:02:13.503Z,1.90
2022-11-03T02:04:42.706Z,2.33
2022-11-03T02:07:18.783Z,2.70
2022-11-03T02:09:46.814Z,2.40
2022-11-03T02:12:17.378Z,2.30
2022-11-03T02:14:50.878Z,1.90
2022-11-03T02:17:21.446Z,2.47
2022-11-03T02:19:55.559Z,2.93
2022-11-03T02:22:36.665Z,2.90
2022-11-03T02:25:15.556Z,11.87
2022-11-03T02:27:45.426Z,6.60
2022-11-03T02:30:13.995Z,2.57
2022-11-03T02:32:59.770Z,3.27
2022-11-03T02:35:34.671Z,2.53
2022-11-03T02:38:04.399Z,3.17
2022-11-03T02:40:36.401Z,2.50
2022-11-03T02:43:07.321Z,3.20
2022-11-03T02:45:36.262Z,2.20
2022-11-03T02:48:06.641Z,3.40
2022-11-03T02:50:35.989Z,5.10
2022-11-03T02:53:04.203Z,3.10
2022-11-03T02:55:38.149Z,2.13
2022-11-03T02:58:15.848Z,2.47
2022-11-03T03:00:50.838Z,2.80
2022-11-03T03:03:23.540Z,2.30
2022-11-03T03:05:54.725Z,2.40
2022-11-03T03:08:26.209Z,2.93
2022-11-03T03:10:54.966Z,2.03
2022-11-03T03:13:25.541Z,2.60
2022-11-03T03:16:06.564Z,2.20
2022-11-03T03:18:45.730Z,3.37
2022-11-03T03:21:18.142Z,2.23
2022-11-03T03:23:50.495Z,2.77
2022-11-03T03:26:24.760Z,2.53
2022-11-03T03:28:58.245Z,2.90
2022-11-03T03:31:29.568Z,2.57
2022-11-03T03:34:04.833Z,3.33
2022-11-03T03:36:47.406Z,2.30
2022-11-03T03:39:17.834Z,3.07
2022-11-03T03:41:47.694Z,2.53
2022-11-03T03:44:18.423Z,2.70
2022-11-03T03:46:52.646Z,3.03
2022-11-03T03:49:20.950Z,2.40
2022-11-03T03:51:50.447Z,2.60
2022-11-03T03:54:18.606Z,2.60
2022-11-03T03:56:54.238Z,2.50
2022-11-03T03:59:23.600Z,2.50
2022-11-03T04:01:51.835Z,2.63
2022-11-03T04:04:19.948Z,2.10
2022-11-03T04:06:48.070Z,1.80
2022-11-03T04:09:16.154Z,2.50
2022-11-03T04:12:01.728Z,2.10
2022-11-03T04:14:48.610Z,1.97
2022-11-03T04:17:38.604Z,2.60
2022-11-03T04:20:30.674Z,2.73
2022-11-03T04:22:58.705Z,2.50
2022-11-03T04:25:26.767Z,2.20
2022-11-03T04:27:54.780Z,2.23
2022-11-03T04:30:26.317Z,2.57
2022-11-03T04:32:54.680Z,1.93
2022-11-03T04:35:24.838Z,2.13
2022-11-03T04:37:57.212Z,2.17
2022-11-03T04:40:25.707Z,1.90
2022-11-03T04:42:53.939Z,2.10
2022-11-03T04:45:29.495Z,2.47
2022-11-03T04:48:00.390Z,2.30
2022-11-03T04:50:28.582Z,2.20
2022-11-03T04:52:58.273Z,2.73
2022-11-03T04:55:27.450Z,4.30
2022-11-03T04:57:59.341Z,2.00
2022-11-03T05:00:28.828Z,2.50
2022-11-03T05:02:56.881Z,2.40
2022-11-03T05:05:26.955Z,2.30
2022-11-03T05:07:57.371Z,2.27
2022-11-03T05:10:28.587Z,2.23
2022-11-03T05:12:57.528Z,2.60
2022-11-03T05:15:32.594Z,2.10
2022-11-03T05:18:02.539Z,2.10
2022-11-03T05:20:36.285Z,2.53
2022-11-03T05:23:07.040Z,1.83
2022-11-03T05:25:41.537Z,2.10
2022-11-03T05:28:19.721Z,1.80
2022-11-03T05:30:50.345Z,2.47
2022-11-03T05:33:22.908Z,1.80
2022-11-03T05:35:51.051Z,2.03
2022-11-03T05:38:21.811Z,2.27
2022-11-03T05:40:53.300Z,2.43
2022-11-03T05:43:23.275Z,2.47
2022-11-03T05:45:58.885Z,1.60
2022-11-03T05:48:32.540Z,2.20
2022-11-03T05:51:01.752Z,2.60
2022-11-03T05:53:32.662Z,2.80
2022-11-03T05:56:03.346Z,2.73
2022-11-03T05:58:35.865Z,2.30
2022-11-03T06:01:12.067Z,2.00
2022-11-03T06:03:40.606Z,3.20
2022-11-03T06:06:16.729Z,1.97
2022-11-03T06:08:46.247Z,2.00
2022-11-03T06:11:22.502Z,1.70
2022-11-03T06:13:50.547Z,1.93
2022-11-03T06:16:38.211Z,1.77
2022-11-03T06:19:23.592Z,2.40
2022-11-03T06:21:52.920Z,2.20
2022-11-03T06:24:22.709Z,2.20
2022-11-03T06:26:52.242Z,2.03
2022-11-03T06:29:22.130Z,1.80
2022-11-03T06:31:55.059Z,1.77
2022-11-03T06:34:34.993Z,2.67
2022-11-03T06:37:14.221Z,1.70
2022-11-03T06:39:42.391Z,2.07
2022-11-03T06:42:14.560Z,2.20
2022-11-03T06:44:44.093Z,1.70
2022-11-03T06:47:24.034Z,2.30
2022-11-03T06:49:54.231Z,1.80
2022-11-03T06:52:26.891Z,2.47
2022-11-03T06:55:12.276Z,1.90
2022-11-03T06:57:47.230Z,2.50
2022-11-03T07:00:33.593Z,2.03
2022-11-03T07:03:09.258Z,2.20
2022-11-03T07:05:38.884Z,2.10
2022-11-03T07:08:19.111Z,2.83
2022-11-03T07:10:47.124Z,2.33
2022-11-03T07:13:19.038Z,2.30
2022-11-03T07:15:47.273Z,2.33
2022-11-03T07:18:22.347Z,2.00
2022-11-03T07:20:50.811Z,1.80
2022-11-03T07:23:21.171Z,1.57
2022-11-03T07:25:54.452Z,2.33
2022-11-03T07:28:25.796Z,2.13
2022-11-03T07:30:54.093Z,4.23
2022-11-03T07:33:26.443Z,2.23
2022-11-03T07:38:51.676Z,2.20
2022-11-03T07:41:21.833Z,2.40
2022-11-03T07:43:54.637Z,2.03
2022-11-03T07:46:24.584Z,3.20
2022-11-03T07:48:57.267Z,2.33
2022-11-03T07:51:29.692Z,2.30
2022-11-03T07:54:00.014Z,2.30
2022-11-03T07:56:30.023Z,2.90
2022-11-03T07:59:02.360Z,2.50
2022-11-03T08:01:32.420Z,2.30
2022-11-03T08:04:05.399Z,2.80
2022-11-03T08:06:33.823Z,2.37
2022-11-03T08:09:01.832Z,1.97
2022-11-03T08:11:30.155Z,2.50
2022-11-03T08:13:58.456Z,2.27
2022-11-03T08:16:26.674Z,2.43
2022-11-03T08:18:54.736Z,2.73
2022-11-03T08:21:24.253Z,2.30
2022-11-03T08:23:52.603Z,2.30
2022-11-03T08:26:21.144Z,3.00
2022-11-03T08:28:49.571Z,2.37
2022-11-03T08:31:17.892Z,2.30
2022-11-03T08:33:46.169Z,2.93
2022-11-03T08:36:14.497Z,2.50
2022-11-03T08:38:43.925Z,2.33
2022-11-03T08:41:11.970Z,2.73
2022-11-03T08:43:40.283Z,2.40
2022-11-03T08:46:20.613Z,2.27
2022-11-03T08:48:48.692Z,2.50
2022-11-03T08:51:17.332Z,2.53
2022-11-03T08:53:50.489Z,2.60
2022-11-03T08:56:21.842Z,2.50
2022-11-03T08:58:50.389Z,2.40
2022-11-03T09:01:18.672Z,2.37
2022-11-03T09:03:46.781Z,2.30
2022-11-03T09:06:14.935Z,3.60
2022-11-03T09:11:32.295Z,2.50
2022-11-03T09:14:00.316Z,3.07
2022-11-03T09:16:28.301Z,2.63
2022-11-03T09:18:56.339Z,2.50
2022-11-03T09:21:24.381Z,2.50
2022-11-03T09:23:52.393Z,2.23
2022-11-03T09:26:21.726Z,2.50
2022-11-03T09:28:51.083Z,4.20
2022-11-03T09:31:19.941Z,2.27
2022-11-03T09:33:48.025Z,2.60
2022-11-03T09:36:16.150Z,2.13
2022-11-03T09:38:44.203Z,2.77
2022-11-03T09:41:26.286Z,2.40
2022-11-03T09:44:05.360Z,2.30
2022-11-03T09:46:35.136Z,2.60
2022-11-03T09:49:04.577Z,2.00
2022-11-03T09:51:35.822Z,2.37
2022-11-03T09:54:05.921Z,2.50
2022-11-03T09:56:37.252Z,3.30
2022-11-03T09:59:15.406Z,2.37
2022-11-03T10:01:45.658Z,2.33
2022-11-03T10:04:14.080Z,2.50
2022-11-03T10:06:42.183Z,3.17
2022-11-03T10:09:15.587Z,2.47
2022-11-03T10:11:44.552Z,2.80
2022-11-03T10:14:17.458Z,3.00
2022-11-03T10:16:54.266Z,2.83
2022-11-03T10:19:22.417Z,2.30
2022-11-03T10:21:50.970Z,3.20
2022-11-03T10:24:19.606Z,2.93
2022-11-03T10:26:49.157Z,2.70
2022-11-03T10:29:23.335Z,2.80
2022-11-03T10:31:53.395Z,2.80
2022-11-03T10:34:27.283Z,2.60
2022-11-03T10:37:12.868Z,2.70
2022-11-03T10:39:40.982Z,2.17
2022-11-03T10:42:21.759Z,3.03
2022-11-03T10:44:53.635Z,3.00
2022-11-03T10:47:27.956Z,3.93
2022-11-03T10:49:56.160Z,3.60
2022-11-03T10:52:26.245Z,2.97
2022-11-03T10:54:56.451Z,2.70
2022-11-03T10:57:26.066Z,3.13
2022-11-03T10:59:56.164Z,3.30
2022-11-03T11:02:26.931Z,2.87
2022-11-03T11:04:59.135Z,4.80
2022-11-03T11:07:33.179Z,3.77
2022-11-03T11:10:07.771Z,2.83
2022-11-03T11:12:36.185Z,3.00
2022-11-03T11:15:27.761Z,3.20
2022-11-03T11:17:55.871Z,3.00
2022-11-03T11:20:44.607Z,3.27
2022-11-03T11:23:46.898Z,3.50
2022-11-03T11:26:18.546Z,3.10
2022-11-03T11:28:47.868Z,2.90
2022-11-03T11:31:33.773Z,2.53
2022-11-03T11:34:41.204Z,2.97
2022-11-03T11:37:34.370Z,3.50
2022-11-03T11:40:03.702Z,3.10
2022-11-03T11:42:33.790Z,3.20
2022-11-03T11:45:05.494Z,2.97
2022-11-03T11:47:53.721Z,3.27
2022-11-03T11:50:32.848Z,2.80
2022-11-03T11:53:13.061Z,2.73
2022-11-03T11:55:44.379Z,2.50
2022-11-03T11:58:21.543Z,3.00
2022-11-03T12:00:59.830Z,3.03
2022-11-03T12:03:39.824Z,3.30
2022-11-03T12:06:09.721Z,2.90
2022-11-03T12:08:37.759Z,3.00
2022-11-03T12:11:08.272Z,3.13
2022-11-03T12:13:48.395Z,2.87
2022-11-03T12:16:30.126Z,3.47
2022-11-03T12:19:39.120Z,3.77
2022-11-03T12:22:09.873Z,3.70
2022-11-03T12:24:49.901Z,3.40
2022-11-03T12:27:34.883Z,2.97
2022-11-03T12:30:04.751Z,2.83
2022-11-03T12:32:34.954Z,3.10
2022-11-03T12:35:05.941Z,3.53
2022-11-03T12:37:34.056Z,3.70
2022-11-03T12:40:02.062Z,2.97
2022-11-03T12:42:30.121Z,3.27
2022-11-03T12:44:58.248Z,2.80
2022-11-03T12:47:26.275Z,2.70
2022-11-03T12:49:54.306Z,2.67
2022-11-03T12:52:23.967Z,3.67
2022-11-03T12:54:51.953Z,3.00
2022-11-03T12:57:19.996Z,3.60
2022-11-03T12:59:48.047Z,2.83
2022-11-03T13:02:16.242Z,3.20
2022-11-03T13:04:44.367Z,3.40
2022-11-03T13:07:12.393Z,2.80
2022-11-03T13:09:41.768Z,2.67
2022-11-03T13:12:31.549Z,2.93
2022-11-03T13:15:00.064Z,2.90
2022-11-03T13:17:32.268Z,2.87
2022-11-03T13:20:16.215Z,3.00
2022-11-03T13:22:44.300Z,4.40
2022-11-03T13:25:13.722Z,3.80
2022-11-03T13:27:41.749Z,3.30
2022-11-03T13:30:12.054Z,2.93
2022-11-03T13:32:40.122Z,2.80
2022-11-03T13:35:13.451Z,3.17
2022-11-03T13:37:42.213Z,3.20
2022-11-03T13:40:29.367Z,2.60
2022-11-03T13:43:01.058Z,3.00
2022-11-03T13:45:29.321Z,3.37
2022-11-03T13:48:48.472Z,3.47
2022-11-03T13:50:45.416Z,3.90
2022-11-03T13:56:06.828Z,3.90
2022-11-03T14:01:26.528Z,4.20
2022-11-03T14:06:42.653Z,3.60
2022-11-03T14:09:10.674Z,3.10
2022-11-03T14:11:56.435Z,4.60
2022-11-03T14:14:25.796Z,3.77
2022-11-03T14:16:53.830Z,3.40
2022-11-03T14:19:21.886Z,3.33
2022-11-03T14:21:49.907Z,3.73
2022-11-03T14:24:18.259Z,2.67
2022-11-03T14:26:46.257Z,3.20
2022-11-03T14:29:14.272Z,3.37
2022-11-03T14:31:43.893Z,3.07
2022-11-03T14:34:12.014Z,3.20
2022-11-03T14:36:40.182Z,2.87
2022-11-03T14:39:08.231Z,3.00
2022-11-03T14:41:53.997Z,3.23
2022-11-03T14:44:22.029Z,3.53
2022-11-03T14:46:51.572Z,3.27
2022-11-03T14:49:19.653Z,3.30
2022-11-03T14:51:47.710Z,3.10
2022-11-03T14:54:15.763Z,3.03
2022-11-03T14:56:43.816Z,2.97
2022-11-03T14:59:11.818Z,3.17
2022-11-03T15:01:40.149Z,2.90
2022-11-03T15:04:09.639Z,3.40
2022-11-03T15:06:37.648Z,3.00
2022-11-03T15:09:06.002Z,2.90
2022-11-03T15:11:34.362Z,3.00
2022-11-03T15:14:03.400Z,3.40
2022-11-03T15:16:31.474Z,3.30
2022-11-03T15:19:00.132Z,4.70
2022-11-03T15:21:29.500Z,3.30
2022-11-03T15:26:45.619Z,3.27
2022-11-03T15:29:13.654Z,2.70
2022-11-03T15:31:47.269Z,3.00
2022-11-03T15:34:16.490Z,3.00
2022-11-03T15:36:45.911Z,3.40
2022-11-03T15:39:14.193Z,2.93
2022-11-03T15:41:42.269Z,2.80
2022-11-03T15:44:10.311Z,3.27
2022-11-03T15:46:38.338Z,2.80
2022-11-03T15:49:06.390Z,3.17
2022-11-03T15:51:34.365Z,3.23
2022-11-03T15:54:03.969Z,2.83
2022-11-03T15:56:31.987Z,3.17
2022-11-03T15:59:00.283Z,3.30
2022-11-03T16:01:28.403Z,3.30
2022-11-03T16:03:56.561Z,3.27
2022-11-03T16:06:53.363Z,3.40
2022-11-03T16:09:13.937Z,3.70
2022-11-03T16:11:42.022Z,3.17
2022-11-03T16:14:10.402Z,3.10
2022-11-03T16:16:38.550Z,4.67
2022-11-03T16:19:06.554Z,2.80
2022-11-03T16:21:34.572Z,3.20
2022-11-03T16:24:02.580Z,2.90
2022-11-03T16:26:32.010Z,3.00
2022-11-03T16:29:00.048Z,3.63
2022-11-03T16:31:28.193Z,2.70
2022-11-03T16:33:56.228Z,2.40
2022-11-03T16:36:24.238Z,3.40
2022-11-03T16:38:53.173Z,3.00
2022-11-03T16:41:21.415Z,3.37
2022-11-03T16:43:50.781Z,2.77
2022-11-03T16:46:18.872Z,4.03
2022-11-03T16:48:47.052Z,5.00
2022-11-03T16:51:15.094Z,4.67
2022-11-03T16:53:43.401Z,4.43
2022-11-03T16:56:11.442Z,4.00
2022-11-03T16:58:39.578Z,3.87
2022-11-03T17:01:09.168Z,4.80
2022-11-03T17:03:37.234Z,3.00
2022-11-03T17:06:05.604Z,3.13
2022-11-03T17:11:35.893Z,2.67
2022-11-03T17:14:05.978Z,2.57
2022-11-03T17:16:35.663Z,3.27
2022-11-03T17:19:03.756Z,2.77
2022-11-03T17:21:32.176Z,3.37
2022-11-03T17:24:00.291Z,3.90
2022-11-03T17:26:36.513Z,3.73
2022-11-03T17:29:07.966Z,3.70
2022-11-03T17:31:37.667Z,3.37
2022-11-03T17:34:06.532Z,3.83
2022-11-03T17:36:34.577Z,3.40
2022-11-03T17:39:02.618Z,3.60
2022-11-03T17:41:30.646Z,5.10
2022-11-03T17:43:58.692Z,4.10
2022-11-03T17:46:26.700Z,5.07
2022-11-03T17:48:56.087Z,4.67
2022-11-03T17:51:24.112Z,3.57
2022-11-03T17:53:52.597Z,3.30
2022-11-03T17:56:30.931Z,3.30
2022-11-03T17:58:59.523Z,3.30
2022-11-03T18:01:28.067Z,3.50
2022-11-03T18:03:57.984Z,3.67
2022-11-03T18:06:26.091Z,2.90
2022-11-03T18:08:54.115Z,2.97
2022-11-03T18:11:45.001Z,3.43
2022-11-03T18:14:13.381Z,3.13
2022-11-03T18:16:41.907Z,3.40
2022-11-03T18:19:13.465Z,4.10
2022-11-03T18:21:41.940Z,3.70
2022-11-03T18:24:13.376Z,5.80
2022-11-03T18:26:41.438Z,5.17
2022-11-03T18:29:09.894Z,4.83
2022-11-03T18:31:41.179Z,4.70
2022-11-03T18:34:15.913Z,4.40
2022-11-03T18:36:44.415Z,3.40
2022-11-03T18:39:19.988Z,3.30
2022-11-03T18:41:48.075Z,3.53
2022-11-03T18:44:20.425Z,3.90
2022-11-03T18:46:51.124Z,3.20
2022-11-03T18:49:20.653Z,4.80
2022-11-03T18:51:51.635Z,3.20
2022-11-03T18:54:21.882Z,6.57
2022-11-03T18:56:50.908Z,5.03
2022-11-03T18:59:23.743Z,5.90
2022-11-03T19:01:52.190Z,14.50
2022-11-03T19:04:22.335Z,5.93
2022-11-03T19:06:52.949Z,3.43
2022-11-03T19:09:24.411Z,5.00
2022-11-03T19:11:54.235Z,3.40
2022-11-03T19:14:24.669Z,3.03
2022-11-03T19:19:42.823Z,3.10
2022-11-03T19:22:13.912Z,3.23
2022-11-03T19:24:42.234Z,3.63
2022-11-03T19:27:15.967Z,5.43
2022-11-03T19:29:46.752Z,3.80
2022-11-03T19:32:20.568Z,3.57
2022-11-03T19:34:55.236Z,3.47
2022-11-03T19:37:23.410Z,3.63
2022-11-03T19:39:51.440Z,3.40
2022-11-03T19:42:31.171Z,3.80
2022-11-03T19:45:01.004Z,4.00
2022-11-03T19:47:32.785Z,3.53
2022-11-03T19:50:04.848Z,5.40
2022-11-03T19:52:34.586Z,6.53
2022-11-03T19:55:05.553Z,4.53
2022-11-03T19:57:33.874Z,4.07
2022-11-03T20:00:02.035Z,4.57
2022-11-03T20:02:36.187Z,3.80
2022-11-03T20:05:06.176Z,4.37
2022-11-03T20:07:34.374Z,3.53
2022-11-03T20:10:03.297Z,4.63
2022-11-03T20:12:32.066Z,4.23
2022-11-03T20:15:00.126Z,4.00
2022-11-03T20:17:28.322Z,3.70
2022-11-03T20:19:56.345Z,4.30
2022-11-03T20:22:30.121Z,4.50
2022-11-03T20:25:01.542Z,6.27
2022-11-03T20:27:33.017Z,4.87
2022-11-03T20:30:01.221Z,4.70
2022-11-03T20:32:29.403Z,4.33
2022-11-03T20:34:57.521Z,4.50
2022-11-03T20:37:26.960Z,4.40
2022-11-03T20:39:55.137Z,4.03
2022-11-03T20:42:26.675Z,4.40
2022-11-03T20:44:54.958Z,4.60
2022-11-03T20:47:23.346Z,5.40
2022-11-03T20:49:51.357Z,5.43
2022-11-03T20:52:19.382Z,6.30
2022-11-03T20:54:50.971Z,5.37
2022-11-03T20:57:19.086Z,5.70
2022-11-03T20:59:47.291Z,5.57
2022-11-03T21:02:15.444Z,5.30
2022-11-03T21:04:44.020Z,5.10
2022-11-03T21:07:13.651Z,4.37
2022-11-03T21:09:41.998Z,4.40
2022-11-03T21:12:14.552Z,4.40
2022-11-03T21:15:04.961Z,4.70
2022-11-03T21:17:51.771Z,4.20
2022-11-03T21:20:19.806Z,6.90
2022-11-03T21:22:52.959Z,4.40
2022-11-03T21:25:24.292Z,4.60
2022-11-03T21:27:55.075Z,4.17
2022-11-03T21:30:23.683Z,4.50
2022-11-03T21:32:51.950Z,4.17
2022-11-03T21:35:22.259Z,5.07
2022-11-03T21:37:50.441Z,4.80
2022-11-03T21:40:18.881Z,4.37
2022-11-03T21:43:04.387Z,5.30
2022-11-03T21:45:34.415Z,4.40
2022-11-03T21:48:20.140Z,4.60
2022-11-03T21:50:48.601Z,4.23
2022-11-03T21:53:16.604Z,5.10
2022-11-03T21:55:44.625Z,3.80
2022-11-03T21:58:12.679Z,4.70
2022-11-03T22:00:42.129Z,3.70
2022-11-03T22:03:10.688Z,3.90
2022-11-03T22:05:38.907Z,3.53
2022-11-03T22:08:08.314Z,3.73
2022-11-03T22:10:39.394Z,3.20
2022-11-03T22:13:07.660Z,3.77
2022-11-03T22:16:04.669Z,3.50
2022-11-03T22:18:34.048Z,3.60
2022-11-03T22:21:19.812Z,3.40
2022-11-03T22:24:07.818Z,3.90
2022-11-03T22:26:53.472Z,3.30
2022-11-03T22:29:38.803Z,3.80
2022-11-03T22:32:14.697Z,3.93
2022-11-03T22:35:01.791Z,4.10
2022-11-03T22:40:14.661Z,4.50
2022-11-03T22:42:59.229Z,4.20
2022-11-03T22:45:44.604Z,4.33
2022-11-03T22:48:13.210Z,4.40
2022-11-03T22:50:42.607Z,4.47
2022-11-03T22:53:28.120Z,3.67
2022-11-03T22:55:56.135Z,3.90
2022-11-03T22:58:29.400Z,3.97
2022-11-03T23:00:58.519Z,4.50
2022-11-03T23:03:26.526Z,4.50
2022-11-03T23:06:01.043Z,5.40
2022-11-03T23:08:31.209Z,4.50
2022-11-03T23:11:05.326Z,4.20
2022-11-03T23:13:33.316Z,4.43
2022-11-03T23:16:01.369Z,4.20
2022-11-03T23:18:46.739Z,5.00
2022-11-03T23:21:16.175Z,4.70
2022-11-03T23:24:01.831Z,4.87
2022-11-03T23:26:29.858Z,3.80
2022-11-03T23:28:57.861Z,4.60
2022-11-03T23:31:25.898Z,4.80
2022-11-03T23:33:54.008Z,4.87
2022-11-03T23:36:23.410Z,4.67
2022-11-03T23:38:51.521Z,4.33
2022-11-03T23:41:20.333Z,3.90
2022-11-03T23:43:48.579Z,4.47
2022-11-03T23:46:35.969Z,4.20
2022-11-03T23:49:04.752Z,4.13
2022-11-03T23:51:35.652Z,4.20
2022-11-03T23:54:05.285Z,4.47
2022-11-03T23:56:53.814Z,4.37
2022-11-03T23:59:22.071Z,4.57
